Yokota AFB

Current Flights

Departures
Number Departure To Airline
Arrivals
Number Arrival From Airline
 8C307 14:10 +435  Anchorage  Air Transport International
Info
Name: Yokota AFB
Identifier:  OKO/RJTY
Local Time:  20. May 19:14
City
Flights per Day
1 flights
Distance: 6,202km (3,853mi)
Punctuality
77% (0 flights per day delayed)
Delay Average: 17 minutes
Current Weather
 18 C (Humidity: 100%)
  16kt (29km/h / 18mph) from 170°
26 knots Gusts

  Broken clouds at 700 feet (213 meter)
  Overcast at 1,100 feet (335 meter)
  9km (6 mi.)
 Mist
 METAR RJTY 201856Z AUTO 17016G26KT 6SM -RA BR BKN007 OVC011 18/18 A2974 RMK AO2 PK WND 18027/44 RAE36RAB46 BKN V OVC CIG 003 RWY18 SLP071 P0005 T01840181 FZRANO $

Current Delays

Departures
N/A
Arrivals
N/A

Destinations

Top Destinations
Airport Flights
per week
Seats
per week
  Andersen (UAM) <1 - 0 0
  Fairfield (SUU) <1 - 0 0
  Honolulu (HNL) <1 49 0 7
  Anchorage (ANC) <1 49 0 7
  Singapore (QPG) <1 49 0 7

Airlines & Planes

Top Airlines
Airline Flights
per Day
Seats
per Day
  Kalitta Air <1 -
  National Airlines <1 -
  Delta Air Lines <1 37
  Air Transport International <1 -
  Omni Air International <1 30
  Atlas Air <1 -
Top Plane Types
Manufacturer Model Flights Seats
Boeing B747-400 0.8/day - 0
Boeing B767-300 0.3/day 68/day 68
Boeing B757-200 0.1/day - -0.06666666666666667